Sunday, May 01, 2016
17:28 UTC
  |  Log In   |  Register Free
Airport Search:

Yellowstone Regional Airport
(KCOD)

Yellowstone Regional Airport Diagram
No Airport Diagram Available

FAA data valid effective Mar 31 2016 - May 26 2016 (unless otherwise noted).

 
 
 
 
 
 
 
 
 
 
 
 
 
 
Current Aviation Weather for KCOD

Weather Summary


The most recent METAR observation for COD was updated at: 12:55 UTC
METAR for KCOD is not available. Closest METAR is for KPOY
KCOD  (most recent observation was updatred at 11:71 UTC)
011715Z AUTO 07007KT 340V090 10SM SCT050 09/M03 A3032 RMK AO1

KPOY  (23.1 nm SW)   (most recent observation was updated at 11:71 UTC)
011715Z AUTO 04003KT 10SM CLR 11/M06 A3031 RMK AO2

KU68  (34.1 nm SW)   (most recent observation was updated at 11:71 UTC)
011715Z AUTO 03004KT 10SM CLR 13/M05 A3031 RMK AO2

TAF for KCOD is not available.
KCOD
011720Z 0118/0218 01009KT P6SM SCT050 FM020200 VRB06KT P6SM BKN045 FM020600 VRB06KT P6SM FEW250 AMD LTD TO CLD VIS AND WIND

GlobalAir.com is loading additional information.
 Current Weather at COD
46.0 F° (8.0 C°)

North winds at 10.4 mph
Pressure:
30.33 in
Humidity:
57%
Wind:
North at 10.4 mph
Dew Point:
32.0 F° (0.0 C°)
Visibility:
10.00 mi
COD NOAA Radar




Find All Airport Services Find A Hotel Find A Rental Car Find A Golf Course Find A Restaurant $100 Hamburger



Airport Weather Forecast for KCOD

Translated METAR for KCOD (1715 UTC)
METAR:
KCOD 011715Z AUTO 07007KT 340V090 10SM SCT050 09/M03 A3032 RMK AO1
Conditions at:
KCOD (Yellowstone Rgnl, WY) observed 1715 UTC 01 May 2016
Temperature:
9°C (48.2°F)
Dewpoint:
-3°C (26.6°F) [RH = 42.8]
Pressure:
30.32 inches Hg (1026.8 mb)
Winds:
from the ENE (070 degrees) at 8.1 mph (7 knots: 3.6 m/s)
Visibility:
10 mile(s)
Ceiling:
at least 12,000 feet AGL
Clouds:
Scattered Clouds at 5,000 feet AGL
Remarks:
site is un-manned
site is automated and does NOT have a precipitation sensor

Translated TAF for KCOD (Yellowstone Rgnl, WY) (1720 UTC)
TAF text:
KCOD 011720Z 0118/0218 01009KT P6SM SCT050
Forecast period:
Sunday May 01 2016 18:00 UTC - Monday May 02 2016 18:00 UTC
Forecast type:
FROM: standard forecast or significant change
Winds:
from the N (010 degrees) at 10.4 mph (9 knots: 4.6 m/s)
Visibility:
6 or more mile(s) (9.7+ km)
Ceiling:
at least 12,000 feet AGL
Clouds:
Scattered Clouds at 5,000 feet AGL
Weather:
no significant weather observed at this time
TAF text:
FM020200 VRB06KT P6SM BKN045
Forecast period:
Monday May 02 2016 02:00 UTC - Monday May 02 2016 06:00 UTC
Forecast type:
FROM: standard forecast or significant change
Winds:
variable wind direction at 6.9 mph (6 knots: 3.1 m/s)
Visibility:
6 or more mile(s) (9.7+ km)
Ceiling:
4,500 feet AGL
Clouds:
Broken Cloud Cover at 4,500 feet AGL
Weather:
no significant weather observed at this time
TAF text:
FM020600 VRB06KT P6SM FEW250 LTD TO CLD VIS AND WIND
Forecast period:
Monday May 02 2016 06:00 UTC - Monday May 02 2016 18:00 UTC
Forecast type:
FROM: standard forecast or significant change
Winds:
variable wind direction at 6.9 mph (6 knots: 3.1 m/s)
Visibility:
6 or more mile(s) (9.7+ km)
Ceiling:
at least 12,000 feet AGL
Clouds:
Few Clouds at 25,000 feet AGL
Weather:
no significant weather observed at this time
FBO's on the Field
FBO Company Facility Photos Services Transportation Aviation Fuel Prices: Prices include tax
Catering Weather Repair Courtesy Rental Type 100LL JetA JetA+ MOGAS 8087
 
Choice Aviation, LLC

This FBO has not yet been rated
FS:Independent
Last Updated: Apr-25
Login to update fuel prices
SS:
Contact Choice Aviation, LLCMore FBO Information
 
Add another FBO Facility Photos Catering Weather Repair Courtesy Rental Type 100LL JetA JetA+ MOGAS 8087
Services Transportation Aviation Fuel Prices: Prices include tax


model-print
model-print
model-print
model-print